Time;durP1;ratioP1;P1;durP2;ratioP2;P2;SDS_P1;SDS_P2;PMS_P1;PMS_P2;Temp;Humidity;BMP_temperature;BMP_pressure;BME280_temperature;BME280_humidity;BME280_pressure;Samples;Min_cycle;Max_cycle;Signal;HPM_P1;HPM_P2
2022/10/06 00:02:06;;;;;;;34.63;8.60;;;;;;;10.80;100.00;98573.63;5059799;28;20142;-57
2022/10/06 00:04:32;;;;;;;41.05;9.15;;;;;;;11.02;100.00;98576.38;5060439;28;20028;-55
2022/10/06 00:06:57;;;;;;;47.10;9.73;;;;;;;11.24;100.00;98586.09;5059583;28;20032;-55
2022/10/06 00:09:22;;;;;;;37.28;8.63;;;;;;;11.29;100.00;98589.41;5060235;28;20056;-55
2022/10/06 00:11:47;;;;;;;37.88;8.70;;;;;;;11.19;100.00;98588.84;5059849;28;20603;-56
2022/10/06 00:14:13;;;;;;;39.58;8.73;;;;;;;10.95;100.00;98591.41;5059949;28;20037;-56
2022/10/06 00:16:38;;;;;;;37.22;8.85;;;;;;;11.12;100.00;98596.06;5059623;28;20039;-56
2022/10/06 00:19:03;;;;;;;41.13;8.68;;;;;;;10.99;100.00;98587.78;5059638;28;20039;-56
2022/10/06 00:21:29;;;;;;;32.85;8.32;;;;;;;10.72;100.00;98594.75;5059387;28;20085;-56
2022/10/06 00:23:54;;;;;;;29.35;8.90;;;;;;;10.92;100.00;98596.72;5060587;28;20069;-57
2022/10/06 00:26:19;;;;;;;36.88;7.90;;;;;;;10.48;100.00;98596.38;5059352;28;20076;-56
2022/10/06 00:28:46;;;;;;;43.10;9.43;;;;;;;10.77;100.00;98597.19;5059753;28;20421;-58
2022/10/06 00:31:11;;;;;;;33.15;8.23;;;;;;;10.66;100.00;98594.06;5059336;28;20048;-58
2022/10/06 00:33:37;;;;;;;37.40;8.18;;;;;;;10.80;100.00;98600.56;5059875;28;20059;-55
2022/10/06 00:36:03;;;;;;;34.58;7.72;;;;;;;10.70;100.00;98603.53;5059478;28;20123;-56
2022/10/06 00:38:28;;;;;;;34.97;7.72;;;;;;;10.70;100.00;98600.94;5059457;28;20726;-56
2022/10/06 00:40:54;;;;;;;34.72;8.18;;;;;;;10.68;100.00;98607.91;5058880;28;20052;-58
2022/10/06 00:43:44;;;;;;;40.28;8.45;;;;;;;10.85;100.00;98605.63;5057668;28;20025;-58
2022/10/06 00:46:40;;;;;;;41.50;8.00;;;;;;;10.82;100.00;98600.50;5058979;28;21082;-57
2022/10/06 00:49:33;;;;;;;39.67;8.27;;;;;;;10.95;100.00;98601.84;5059202;28;20036;-57
2022/10/06 00:52:10;;;;;;;30.90;7.07;;;;;;;10.57;100.00;98613.50;5059383;28;20048;-56
2022/10/06 00:54:37;;;;;;;38.63;8.18;;;;;;;10.55;100.00;98607.44;5059530;28;20050;-56
2022/10/06 00:57:03;;;;;;;32.95;7.68;;;;;;;10.57;100.00;98613.50;5059433;28;20044;-56
2022/10/06 00:59:29;;;;;;;46.22;8.80;;;;;;;10.68;100.00;98619.25;5059139;28;20157;-56
2022/10/06 01:14:51;;;;;;;201.45;21.33;;;;;;;10.67;100.00;98617.50;6003588;22;20012;-57
2022/10/06 01:32:48;;;;;;;191.52;20.25;;;;;;;11.07;100.00;98612.78;5987184;23;20024;-60
2022/10/06 01:50:59;;;;;;;67.07;11.18;;;;;;;10.84;100.00;98637.84;6044704;22;20892;-55
2022/10/06 02:01:10;;;;;;;91.68;13.57;;;;;;;10.61;100.00;98649.03;5354239;23;20041;-56
2022/10/06 02:03:37;;;;;;;35.30;8.05;;;;;;;10.36;100.00;98643.69;5024321;28;20075;-56
2022/10/06 02:06:03;;;;;;;27.58;7.25;;;;;;;10.17;100.00;98651.16;5027952;28;20041;-56
2022/10/06 02:08:29;;;;;;;32.65;7.50;;;;;;;10.54;100.00;98648.34;5031454;28;20021;-58
2022/10/06 02:10:55;;;;;;;30.20;7.07;;;;;;;10.42;100.00;98656.53;5030161;28;20835;-56
2022/10/06 02:13:24;;;;;;;36.70;8.63;;;;;;;10.65;100.00;98655.84;5029851;28;20788;-58
2022/10/06 02:15:50;;;;;;;43.30;8.65;;;;;;;10.63;100.00;98649.81;5028850;28;20303;-56
2022/10/06 02:18:15;;;;;;;33.13;6.72;;;;;;;10.50;100.00;98646.75;5032173;28;20108;-55
2022/10/06 02:20:41;;;;;;;31.48;7.40;;;;;;;10.74;100.00;98660.78;5028718;28;20116;-55
2022/10/06 02:23:06;;;;;;;27.10;6.53;;;;;;;10.83;100.00;98664.88;5033851;28;20401;-56
2022/10/06 02:25:31;;;;;;;30.88;6.88;;;;;;;10.29;100.00;98669.03;5032024;28;20116;-55
2022/10/06 02:27:57;;;;;;;35.85;7.50;;;;;;;10.61;100.00;98656.84;5030998;28;20040;-55
2022/10/06 02:30:22;;;;;;;26.63;6.43;;;;;;;10.72;100.00;98664.34;5029388;28;20036;-55
2022/10/06 02:32:47;;;;;;;29.85;6.93;;;;;;;10.84;100.00;98666.56;5030523;28;20551;-54
2022/10/06 02:35:13;;;;;;;32.13;7.00;;;;;;;10.72;100.00;98661.75;5033302;28;20025;-54
2022/10/06 02:37:40;;;;;;;33.50;7.03;;;;;;;10.79;100.00;98671.94;5031524;28;20025;-55
2022/10/06 02:40:07;;;;;;;37.95;7.63;;;;;;;10.61;100.00;98668.13;5029752;28;20442;-55
2022/10/06 02:42:35;;;;;;;28.75;6.30;;;;;;;10.38;100.00;98666.22;5029559;28;20025;-57
2022/10/06 02:45:00;;;;;;;38.90;7.38;;;;;;;10.65;100.00;98675.88;5030567;28;20082;-56
2022/10/06 02:47:27;;;;;;;31.20;6.45;;;;;;;10.66;100.00;98672.34;5033945;28;20048;-55
2022/10/06 02:49:52;;;;;;;33.17;6.93;;;;;;;10.65;100.00;98676.72;5032990;28;20083;-55
2022/10/06 02:52:17;;;;;;;36.25;7.03;;;;;;;10.96;100.00;98675.78;5031992;28;20037;-54
2022/10/06 02:54:44;;;;;;;30.30;6.55;;;;;;;10.60;100.00;98674.25;5030609;28;20021;-55
2022/10/06 02:57:10;;;;;;;35.30;7.10;;;;;;;10.52;100.00;98671.00;5033082;28;20049;-55
2022/10/06 02:59:35;;;;;;;45.92;8.32;;;;;;;10.77;100.00;98675.47;5032576;28;20539;-55
2022/10/06 03:02:01;;;;;;;34.42;7.07;;;;;;;10.39;100.00;98667.06;5029992;28;20045;-55
2022/10/06 03:04:26;;;;;;;30.50;6.97;;;;;;;10.32;100.00;98665.53;5032942;28;20475;-56
2022/10/06 03:06:51;;;;;;;26.67;6.63;;;;;;;10.37;100.00;98668.88;5031917;28;20065;-55
2022/10/06 03:09:18;;;;;;;25.08;6.35;;;;;;;10.28;100.00;98669.97;5034416;28;20462;-55
2022/10/06 03:11:43;;;;;;;35.42;7.03;;;;;;;10.05;100.00;98678.41;5033999;28;20040;-55
2022/10/06 03:14:09;;;;;;;33.13;7.57;;;;;;;10.34;100.00;98679.38;5034371;28;20103;-55
2022/10/06 03:16:39;;;;;;;32.40;7.05;;;;;;;10.45;100.00;98674.72;5033739;28;20041;-55
2022/10/06 03:19:06;;;;;;;34.17;7.25;;;;;;;10.54;100.00;98678.81;5036145;28;20446;-55
2022/10/06 03:21:34;;;;;;;30.50;6.88;;;;;;;10.52;100.00;98684.06;5034107;28;20751;-55
2022/10/06 03:23:59;;;;;;;24.67;6.40;;;;;;;10.33;100.00;98681.16;5035558;28;20103;-55
2022/10/06 03:26:32;;;;;;;34.13;6.88;;;;;;;10.49;100.00;98686.75;5034916;28;20405;-55
2022/10/06 03:28:59;;;;;;;25.08;7.10;;;;;;;10.56;100.00;98698.72;5034915;28;20516;-55
2022/10/06 03:31:25;;;;;;;29.08;7.15;;;;;;;10.33;100.00;98701.13;5034862;28;20063;-55
2022/10/06 03:33:51;;;;;;;31.38;6.50;;;;;;;10.31;100.00;98703.81;5037242;28;20048;-54
2022/10/06 03:36:19;;;;;;;27.50;7.30;;;;;;;10.39;100.00;98711.41;5037076;28;20036;-55
2022/10/06 03:38:45;;;;;;;29.13;7.18;;;;;;;10.08;100.00;98721.81;5035404;28;20212;-56
2022/10/06 03:41:16;;;;;;;35.80;8.35;;;;;;;10.00;100.00;98722.88;5031427;28;20739;-55
2022/10/06 03:43:43;;;;;;;40.78;7.65;;;;;;;10.18;100.00;98726.75;5035091;28;20104;-55
2022/10/06 03:46:10;;;;;;;31.05;7.00;;;;;;;10.33;100.00;98740.25;5035272;28;20041;-55
2022/10/06 03:48:35;;;;;;;41.13;8.40;;;;;;;10.18;100.00;98739.78;5036126;28;20030;-55
2022/10/06 03:51:07;;;;;;;41.92;8.55;;;;;;;10.50;100.00;98751.06;5034205;28;20127;-55
2022/10/06 03:53:33;;;;;;;40.33;7.50;;;;;;;10.42;100.00;98753.03;5034982;28;20040;-55
2022/10/06 03:56:11;;;;;;;26.27;6.95;;;;;;;10.60;100.00;98757.75;5033643;28;20125;-55
2022/10/06 03:58:40;;;;;;;30.40;7.43;;;;;;;10.88;100.00;98756.94;5033448;28;20463;-55
2022/10/06 04:01:12;;;;;;;35.55;7.55;;;;;;;10.86;100.00;98763.91;5033034;28;20044;-55
2022/10/06 04:03:39;;;;;;;37.88;7.85;;;;;;;10.56;100.00;98766.53;5033928;28;20066;-53
2022/10/06 04:06:06;;;;;;;22.20;6.20;;;;;;;10.49;100.00;98765.00;5034637;28;20040;-55
2022/10/06 04:08:33;;;;;;;28.92;6.70;;;;;;;10.80;100.00;98770.19;5033861;28;20040;-55
2022/10/06 04:11:06;;;;;;;30.33;6.97;;;;;;;10.57;100.00;98772.63;5029369;28;20608;-54
2022/10/06 04:13:31;;;;;;;;;;;;;;;10.83;100.00;98779.69;5033722;28;20025;-55
2022/10/06 04:15:56;;;;;;;30.43;6.10;;;;;;;10.22;100.00;98777.88;5034202;28;19923;-55
2022/10/06 04:18:22;;;;;;;28.15;6.32;;;;;;;10.31;100.00;98766.41;5031787;28;20270;-55
2022/10/06 04:20:47;;;;;;;38.03;7.88;;;;;;;10.92;100.00;98774.19;5030848;28;20029;-55
2022/10/06 04:23:14;;;;;;;27.35;6.97;;;;;;;11.19;100.00;98779.47;5031538;28;20029;-55
2022/10/06 04:25:39;;;;;;;30.95;6.55;;;;;;;11.19;100.00;98771.63;5032475;28;20041;-55
2022/10/06 04:28:05;;;;;;;26.33;6.88;;;;;;;10.99;100.00;98785.28;5031103;28;20051;-56
2022/10/06 04:30:30;;;;;;;32.03;6.75;;;;;;;10.97;100.00;98793.19;5034718;28;20037;-55
2022/10/06 04:32:55;;;;;;;32.38;7.13;;;;;;;10.77;100.00;98798.13;5033448;28;20543;-56
2022/10/06 04:35:22;;;;;;;26.17;6.85;;;;;;;10.74;100.00;98791.25;5033888;28;20474;-55
2022/10/06 04:37:48;;;;;;;28.42;6.25;;;;;;;10.51;100.00;98794.53;5032098;28;20025;-55
2022/10/06 04:40:14;;;;;;;34.08;7.05;;;;;;;10.69;100.00;98802.72;5033602;28;20055;-55
2022/10/06 04:42:40;;;;;;;28.02;6.55;;;;;;;10.72;100.00;98802.63;5030668;28;20435;-56
2022/10/06 04:45:06;;;;;;;33.08;7.28;;;;;;;10.87;100.00;98804.78;5032146;28;20026;-55
2022/10/06 04:47:32;;;;;;;41.65;8.18;;;;;;;10.92;100.00;98800.31;5034453;28;20040;-55
2022/10/06 04:49:57;;;;;;;35.47;7.88;;;;;;;11.02;100.00;98805.25;5031469;28;20433;-55
2022/10/06 04:52:23;;;;;;;21.17;6.63;;;;;;;10.93;100.00;98803.75;5032343;28;20037;-55
2022/10/06 04:54:48;;;;;;;26.83;6.60;;;;;;;11.00;100.00;98813.97;5029986;28;20083;-55
2022/10/06 04:57:13;;;;;;;36.75;7.53;;;;;;;10.91;100.00;98814.25;5030618;28;20048;-55
2022/10/06 05:02:23;;;;;;;28.60;6.60;;;;;;;11.04;100.00;98817.34;5033355;28;20095;-56
2022/10/06 05:04:48;;;;;;;43.95;7.72;;;;;;;11.16;100.00;98821.34;5031037;28;20033;-55
2022/10/06 05:07:14;;;;;;;34.65;7.45;;;;;;;10.77;100.00;98829.44;5030113;28;20040;-55
2022/10/06 05:09:39;;;;;;;37.92;7.50;;;;;;;10.78;100.00;98823.34;5029567;28;20025;-55
2022/10/06 05:12:05;;;;;;;23.35;6.03;;;;;;;10.73;100.00;98830.44;5029525;28;20195;-55
2022/10/06 05:14:32;;;;;;;28.48;6.30;;;;;;;10.54;100.00;98820.50;5032162;28;20025;-54
2022/10/06 05:16:58;;;;;;;31.60;7.20;;;;;;;11.25;100.00;98828.91;5032109;28;20094;-54
2022/10/06 05:19:23;;;;;;;33.03;6.88;;;;;;;11.21;100.00;98840.31;5033909;28;20029;-54
2022/10/06 05:21:48;;;;;;;30.27;6.50;;;;;;;11.53;100.00;98839.34;5012976;28;20040;-58
2022/10/06 05:24:14;;;;;;;26.48;6.10;;;;;;;11.47;100.00;98849.13;5030955;28;20036;-55
2022/10/06 05:26:39;;;;;;;36.63;7.13;;;;;;;11.43;100.00;98855.34;5030635;28;20032;-58
2022/10/06 05:29:05;;;;;;;64.78;15.55;;;;;;;11.71;100.00;98843.16;5033758;28;20468;-56
2022/10/06 05:31:33;;;;;;;46.85;10.90;;;;;;;12.03;100.00;98864.78;5032083;28;20616;-57
2022/10/06 05:33:59;;;;;;;38.78;9.95;;;;;;;12.31;100.00;98871.72;5035026;28;20032;-55
2022/10/06 05:36:28;;;;;;;27.98;6.63;;;;;;;11.97;100.00;98867.63;5032429;28;20129;-58
2022/10/06 05:38:55;;;;;;;27.55;6.45;;;;;;;12.14;100.00;98872.28;5031956;28;20465;-56
2022/10/06 05:41:31;;;;;;;27.90;6.50;;;;;;;12.26;100.00;98886.69;5031167;28;20044;-56
2022/10/06 05:43:57;;;;;;;27.38;6.63;;;;;;;12.32;100.00;98886.50;5035520;28;20025;-57
2022/10/06 05:46:30;;;;;;;27.13;6.05;;;;;;;12.03;100.00;98879.63;5030936;28;20079;-58
2022/10/06 05:48:58;;;;;;;28.38;6.65;;;;;;;12.45;100.00;98882.56;5031253;28;20685;-58
2022/10/06 05:51:26;;;;;;;28.63;6.10;;;;;;;12.67;100.00;98881.81;5030623;28;20037;-58
2022/10/06 05:53:51;;;;;;;25.92;6.50;;;;;;;12.31;100.00;98895.25;5032863;28;20672;-56
2022/10/06 05:56:20;;;;;;;24.55;6.55;;;;;;;12.38;100.00;98891.53;5030541;28;20037;-56
2022/10/06 05:58:48;;;;;;;26.58;6.40;;;;;;;12.30;100.00;98898.78;5031702;28;20041;-58
2022/10/06 06:01:30;;;;;;;29.42;6.45;;;;;;;12.38;100.00;98899.38;5032415;28;20044;-57
2022/10/06 06:04:05;;;;;;;28.10;6.53;;;;;;;12.33;100.00;98906.50;5029874;28;20678;-56
2022/10/06 06:06:33;;;;;;;27.30;6.50;;;;;;;12.42;100.00;98911.44;5031194;28;20034;-58
2022/10/06 06:09:10;;;;;;;32.67;7.13;;;;;;;12.42;100.00;98903.59;5028143;28;20301;-56
2022/10/06 06:11:41;;;;;;;31.58;6.70;;;;;;;12.32;100.00;98910.91;5030585;28;20033;-56
2022/10/06 06:14:09;;;;;;;24.83;6.65;;;;;;;12.77;100.00;98909.34;5032660;28;20032;-58
2022/10/06 06:16:37;;;;;;;26.83;5.80;;;;;;;12.67;100.00;98911.47;5030877;28;20033;-56
2022/10/06 06:19:04;;;;;;;26.88;6.15;;;;;;;12.42;100.00;98919.28;5029215;28;20064;-56
2022/10/06 06:21:29;;;;;;;24.55;6.38;;;;;;;12.45;100.00;98924.44;5031123;28;20034;-56
2022/10/06 06:23:55;;;;;;;28.38;6.55;;;;;;;13.14;100.00;98921.16;5032581;28;20056;-56
2022/10/06 06:26:22;;;;;;;22.42;5.78;;;;;;;13.38;100.00;98936.88;5032062;28;20075;-56
2022/10/06 06:28:49;;;;;;;23.75;6.07;;;;;;;12.98;100.00;98938.34;5033465;28;20053;-57
2022/10/06 06:31:19;;;;;;;26.33;6.72;;;;;;;13.49;100.00;98929.47;5030589;28;20069;-56
2022/10/06 06:33:44;;;;;;;24.42;5.90;;;;;;;13.36;100.00;98936.97;5033025;28;20024;-56
2022/10/06 06:36:16;;;;;;;28.35;6.25;;;;;;;13.62;100.00;98946.47;5031531;28;20037;-59
2022/10/06 06:38:45;;;;;;;30.05;6.78;;;;;;;13.80;100.00;98949.25;5034187;28;20029;-57
2022/10/06 06:41:21;;;;;;;35.38;7.38;;;;;;;14.02;100.00;98955.41;5034062;28;20047;-59
2022/10/06 06:43:47;;;;;;;25.00;6.05;;;;;;;14.18;100.00;98954.78;5037514;28;20075;-56
2022/10/06 06:46:15;;;;;;;29.25;6.43;;;;;;;14.01;100.00;98963.31;5035177;28;20041;-58
2022/10/06 06:48:41;;;;;;;23.52;5.43;;;;;;;14.10;100.00;98977.81;5036155;28;20021;-57
2022/10/06 06:51:07;;;;;;;29.88;6.40;;;;;;;14.22;100.00;98985.22;5034627;28;20064;-56
2022/10/06 06:53:33;;;;;;;26.83;5.60;;;;;;;14.04;100.00;98979.78;5034971;28;20025;-56
2022/10/06 06:55:59;;;;;;;26.77;5.90;;;;;;;14.16;100.00;98988.09;5035828;28;20530;-56
2022/10/06 06:58:25;;;;;;;28.85;6.05;;;;;;;14.51;100.00;98994.53;5035228;28;20017;-58
2022/10/06 07:00:50;;;;;;;19.02;4.78;;;;;;;14.45;100.00;98995.63;5035631;28;20029;-59
2022/10/06 07:03:18;;;;;;;28.55;6.43;;;;;;;14.15;100.00;99008.22;5036173;28;20032;-58
2022/10/06 07:05:47;;;;;;;21.00;5.00;;;;;;;14.44;100.00;99003.56;5035968;28;20041;-58
2022/10/06 07:08:19;;;;;;;27.20;5.95;;;;;;;14.74;100.00;99012.00;5035487;28;20041;-57
2022/10/06 07:10:45;;;;;;;26.50;5.97;;;;;;;14.89;100.00;99014.88;5036024;28;20036;-56
2022/10/06 07:13:15;;;;;;;25.65;6.35;;;;;;;15.54;100.00;99019.03;5037797;28;20032;-56
2022/10/06 07:26:41;;;;;;;26.05;6.07;;;;;;;15.40;100.00;99058.22;5036582;28;20098;-56
2022/10/06 07:29:06;;;;;;;19.45;4.70;;;;;;;15.39;100.00;99061.78;5037795;28;20028;-56
2022/10/06 07:31:34;;;;;;;28.95;6.40;;;;;;;15.08;100.00;99055.22;5036808;28;20560;-56
2022/10/06 07:34:01;;;;;;;20.83;5.65;;;;;;;15.58;100.00;99062.66;5034719;28;20018;-56
2022/10/06 07:36:27;;;;;;;20.80;4.93;;;;;;;15.75;100.00;99068.97;5031466;28;20037;-54
2022/10/06 07:38:52;;;;;;;19.17;5.57;;;;;;;15.86;100.00;99069.38;5034229;28;20342;-56
2022/10/06 07:41:18;;;;;;;23.67;5.45;;;;;;;16.09;100.00;99078.81;5031832;28;20364;-55
2022/10/06 07:43:45;;;;;;;29.13;5.60;;;;;;;15.50;100.00;99077.09;5033886;28;20029;-56
2022/10/06 07:46:11;;;;;;;31.27;5.72;;;;;;;15.93;100.00;99085.72;5032958;28;20063;-56
2022/10/06 07:48:37;;;;;;;24.83;5.35;;;;;;;15.85;100.00;99085.22;5034867;28;20036;-56
2022/10/06 07:51:05;;;;;;;31.33;6.03;;;;;;;16.15;100.00;99090.84;5033241;28;20033;-57
2022/10/06 07:53:32;;;;;;;23.90;5.55;;;;;;;15.89;100.00;99105.19;5036062;28;20593;-56
2022/10/06 07:56:06;;;;;;;27.30;6.15;;;;;;;15.58;100.00;99109.16;5032485;28;20609;-56
2022/10/06 07:58:32;;;;;;;25.17;5.72;;;;;;;15.59;100.00;99106.47;5035038;28;20041;-56
2022/10/06 08:01:09;;;;;;;27.63;5.82;;;;;;;15.54;100.00;99107.59;5033154;28;20041;-55
2022/10/06 08:03:39;;;;;;;23.33;5.93;;;;;;;15.52;100.00;99107.66;5033753;28;20059;-56
2022/10/06 08:06:11;;;;;;;32.35;6.90;;;;;;;15.34;100.00;99106.66;5032079;28;20063;-57
2022/10/06 08:08:37;;;;;;;18.98;5.20;;;;;;;15.42;100.00;99115.09;5034058;28;20032;-57
2022/10/06 08:11:04;;;;;;;26.83;6.15;;;;;;;15.35;100.00;99107.53;5032228;28;20508;-58
2022/10/06 08:13:32;;;;;;;23.60;5.63;;;;;;;15.25;100.00;99116.72;5034838;28;20159;-58
2022/10/06 08:16:23;;;;;;;20.88;5.22;;;;;;;15.92;100.00;99126.97;5031931;28;20435;-56
2022/10/06 08:18:53;;;;;;;27.52;5.60;;;;;;;15.43;100.00;99131.72;5031814;28;20465;-57
2022/10/06 08:21:30;;;;;;;18.70;4.55;;;;;;;15.66;100.00;99132.47;5031160;28;20029;-58
2022/10/06 08:23:57;;;;;;;22.77;4.85;;;;;;;15.34;100.00;99132.09;5032515;28;20098;-57
2022/10/06 08:26:24;;;;;;;23.10;4.45;;;;;;;15.75;100.00;99137.38;5035088;28;20036;-56
2022/10/06 08:28:51;;;;;;;23.00;4.32;;;;;;;15.73;100.00;99149.72;5035983;28;20024;-56
2022/10/06 08:31:20;;;;;;;23.05;4.45;;;;;;;15.68;100.00;99143.78;5035205;28;20040;-57
2022/10/06 08:33:46;;;;;;;14.98;3.78;;;;;;;15.80;100.00;99140.66;5031545;28;20809;-59
2022/10/06 08:36:15;;;;;;;25.58;4.65;;;;;;;15.73;100.00;99150.59;5033096;28;20356;-59
2022/10/06 08:38:41;;;;;;;19.23;4.00;;;;;;;15.74;100.00;99154.09;5032925;28;20029;-57
2022/10/06 08:41:47;;;;;;;25.02;5.30;;;;;;;15.82;100.00;99174.81;5030900;28;20036;-57
2022/10/06 08:44:18;;;;;;;24.08;4.78;;;;;;;16.18;100.00;99173.16;4995671;28;20061;-56
2022/10/06 08:47:10;;;;;;;17.80;3.97;;;;;;;16.38;100.00;99174.03;5028555;28;20083;-57
2022/10/06 08:49:43;;;;;;;30.38;5.75;;;;;;;16.23;100.00;99180.88;5024157;28;20041;-56
2022/10/06 08:52:45;;;;;;;16.13;3.97;;;;;;;16.03;100.00;99179.13;5032563;28;20042;-57
2022/10/06 08:55:17;;;;;;;23.55;4.60;;;;;;;16.02;100.00;99189.72;5036697;28;20049;-56
2022/10/06 08:58:00;;;;;;;20.80;4.80;;;;;;;15.59;100.00;99197.66;5034374;28;20087;-55
2022/10/06 09:00:31;;;;;;;21.80;4.60;;;;;;;16.15;100.00;99198.75;5030362;28;20037;-56
2022/10/06 09:02:58;;;;;;;12.70;3.40;;;;;;;15.85;100.00;99196.56;5032751;28;20029;-55
2022/10/06 09:05:28;;;;;;;20.58;4.30;;;;;;;15.91;100.00;99198.91;5032463;28;20152;-57
2022/10/06 09:08:15;;;;;;;17.00;3.40;;;;;;;16.08;100.00;99213.13;5032270;28;20111;-55
2022/10/06 09:11:01;;;;;;;22.88;4.18;;;;;;;15.95;100.00;99212.81;5031522;28;20029;-54
2022/10/06 09:13:43;;;;;;;19.02;3.85;;;;;;;16.41;100.00;99215.16;5032661;28;20104;-55
2022/10/06 09:16:12;;;;;;;16.33;3.25;;;;;;;16.37;100.00;99225.81;5032142;28;20095;-56
2022/10/06 09:18:37;;;;;;;19.83;3.47;;;;;;;16.62;100.00;99229.16;5032011;28;20021;-55
2022/10/06 09:21:14;;;;;;;21.93;3.90;;;;;;;16.47;100.00;99228.91;5030566;28;20041;-56
2022/10/06 09:23:46;;;;;;;21.85;3.83;;;;;;;16.60;100.00;99221.31;5031980;28;20776;-55
2022/10/06 09:26:14;;;;;;;19.40;3.10;;;;;;;16.87;100.00;99231.50;5033184;28;20047;-55
2022/10/06 09:28:39;;;;;;;19.95;3.92;;;;;;;17.36;100.00;99236.22;5033657;28;20631;-58
2022/10/06 09:31:20;;;;;;;21.55;3.75;;;;;;;17.27;100.00;99238.34;5032202;28;20072;-57
2022/10/06 09:33:46;;;;;;;19.73;3.70;;;;;;;18.09;100.00;99240.44;5030700;28;20030;-57
2022/10/06 09:36:13;;;;;;;20.80;3.50;;;;;;;19.12;100.00;99249.06;5032228;28;20056;-57
2022/10/06 09:38:44;;;;;;;20.40;3.75;;;;;;;19.20;100.00;99247.66;5032923;28;20025;-55
2022/10/06 09:41:12;;;;;;;18.67;3.33;;;;;;;18.50;100.00;99257.66;5032645;28;20071;-56
2022/10/06 09:43:38;;;;;;;18.65;3.30;;;;;;;19.87;100.00;99263.28;5033240;28;20021;-57
2022/10/06 09:46:32;;;;;;;17.27;3.22;;;;;;;19.91;100.00;99264.78;5032799;28;20558;-56
2022/10/06 09:49:20;;;;;;;19.60;3.60;;;;;;;21.03;100.00;99264.19;5031354;28;20111;-58
2022/10/06 09:52:00;;;;;;;15.15;3.13;;;;;;;21.57;100.00;99264.22;5031268;28;20037;-58
2022/10/06 09:54:27;;;;;;;15.23;2.83;;;;;;;21.55;100.00;99271.41;5034799;28;20561;-56
2022/10/06 09:56:54;;;;;;;17.85;3.08;;;;;;;21.86;100.00;99272.88;5032332;28;20076;-58
2022/10/06 09:59:28;;;;;;;15.13;3.17;;;;;;;21.73;100.00;99275.50;5030875;28;20525;-56
2022/10/06 10:01:55;;;;;;;13.45;2.65;;;;;;;21.49;100.00;99271.84;5033102;28;20041;-56
2022/10/06 10:04:34;;;;;;;14.60;2.90;;;;;;;21.48;100.00;99275.44;5033236;28;20029;-56
2022/10/06 10:07:30;;;;;;;15.35;3.10;;;;;;;21.03;100.00;99269.50;5032481;28;20456;-57
2022/10/06 10:10:23;;;;;;;13.13;2.65;;;;;;;20.98;100.00;99277.72;5033268;28;20510;-57
2022/10/06 10:12:54;;;;;;;10.43;2.55;;;;;;;20.94;100.00;99271.75;5033757;28;20059;-56
2022/10/06 10:15:19;;;;;;;21.88;4.03;;;;;;;21.81;100.00;99276.81;5031286;28;20090;-58
2022/10/06 10:17:55;;;;;;;15.52;3.03;;;;;;;22.82;100.00;99276.94;5032418;28;20084;-57
2022/10/06 10:20:36;;;;;;;19.25;3.65;;;;;;;21.45;100.00;99276.50;5031526;28;20260;-57
2022/10/06 10:23:20;;;;;;;15.82;3.30;;;;;;;22.40;100.00;99282.53;5032759;28;20438;-57
2022/10/06 10:25:46;;;;;;;15.00;3.28;;;;;;;22.92;100.00;99275.34;5029049;28;20036;-58
2022/10/06 10:28:28;;;;;;;14.63;3.00;;;;;;;23.33;100.00;99268.84;5030328;28;20032;-57
2022/10/06 10:31:12;;;;;;;17.92;2.92;;;;;;;23.46;100.00;99274.97;5031157;28;20136;-58
2022/10/06 10:34:01;;;;;;;14.73;3.10;;;;;;;23.90;100.00;99277.94;5032726;28;20067;-56
2022/10/06 10:36:38;;;;;;;15.75;3.13;;;;;;;23.19;100.00;99277.81;5033028;28;20092;-57
2022/10/06 10:39:10;;;;;;;13.10;2.90;;;;;;;21.80;100.00;99270.66;5033278;28;20028;-57
2022/10/06 10:41:45;;;;;;;17.70;3.05;;;;;;;22.70;100.00;99278.69;5029897;28;20060;-57
2022/10/06 10:44:23;;;;;;;12.07;2.75;;;;;;;21.84;100.00;99276.59;5031875;28;20029;-58
2022/10/06 10:46:53;;;;;;;15.93;3.30;;;;;;;22.54;100.00;99280.72;5033634;28;20041;-56
2022/10/06 10:49:38;;;;;;;11.38;2.53;;;;;;;23.13;100.00;99275.63;5029921;28;20470;-57
2022/10/06 10:52:14;;;;;;;14.23;2.83;;;;;;;21.70;100.00;99275.69;5030654;28;20418;-56
2022/10/06 10:55:18;;;;;;;21.05;3.65;;;;;;;22.69;100.00;99279.63;5032038;28;20044;-58
2022/10/06 10:57:45;;;;;;;19.25;3.17;;;;;;;21.94;100.00;99278.50;5033687;28;20577;-55
2022/10/06 11:00:24;;;;;;;18.45;3.40;;;;;;;21.88;100.00;99272.78;5030220;28;20072;-57
2022/10/06 11:02:55;;;;;;;20.65;3.65;;;;;;;21.94;100.00;99273.19;5030542;28;20029;-57
2022/10/06 11:05:29;;;;;;;;;;;;;;;22.14;100.00;99276.31;5032641;28;20036;-56
2022/10/06 11:08:07;;;;;;;25.42;3.78;;;;;;;21.95;100.00;99277.56;5032526;28;19909;-58
2022/10/06 11:11:00;;;;;;;17.95;3.00;;;;;;;21.95;100.00;99274.06;5029725;28;20048;-56
2022/10/06 11:13:43;;;;;;;17.75;3.03;;;;;;;21.82;100.00;99278.53;5022260;28;20148;-57
2022/10/06 11:16:36;;;;;;;26.13;3.40;;;;;;;21.09;100.00;99274.38;5032824;28;20037;-56
2022/10/06 11:19:20;;;;;;;18.00;3.22;;;;;;;21.39;100.00;99276.84;5032594;28;20025;-57
2022/10/06 11:21:55;;;;;;;21.80;3.47;;;;;;;21.14;100.00;99277.59;5029142;28;20124;-56
2022/10/06 11:24:51;;;;;;;17.98;3.00;;;;;;;20.03;100.00;99279.09;5032202;28;20260;-58
2022/10/06 11:27:57;;;;;;;17.35;3.17;;;;;;;20.03;100.00;99282.59;5030574;28;20041;-56
2022/10/06 11:30:26;;;;;;;21.35;3.33;;;;;;;19.87;100.00;99283.59;5033952;28;20219;-56
2022/10/06 11:33:00;;;;;;;18.30;3.47;;;;;;;19.86;100.00;99272.16;5037096;28;20478;-57
2022/10/06 11:35:30;;;;;;;17.40;3.00;;;;;;;20.13;100.00;99279.41;5034214;28;20044;-56
2022/10/06 11:38:04;;;;;;;17.58;3.10;;;;;;;19.86;100.00;99271.31;5032003;28;20167;-56
2022/10/06 11:40:37;;;;;;;17.55;3.00;;;;;;;19.41;100.00;99268.56;5033614;28;20055;-57
2022/10/06 11:43:16;;;;;;;18.75;3.35;;;;;;;19.74;100.00;99262.28;5033132;28;20537;-57
2022/10/06 11:46:03;;;;;;;17.35;3.05;;;;;;;19.90;100.00;99263.06;5032983;28;20036;-58
2022/10/06 11:48:30;;;;;;;18.10;3.03;;;;;;;19.43;100.00;99264.88;5034462;28;20490;-57
2022/10/06 11:51:16;;;;;;;16.23;2.97;;;;;;;19.98;100.00;99265.28;5034053;28;20075;-56
2022/10/06 11:53:45;;;;;;;20.80;3.20;;;;;;;20.06;100.00;99257.72;5026385;28;20120;-57
2022/10/06 11:56:16;;;;;;;21.15;3.38;;;;;;;20.65;100.00;99262.16;5035102;28;20099;-56
2022/10/06 11:59:09;;;;;;;21.63;3.33;;;;;;;20.17;100.00;99254.44;5033484;28;20035;-58
2022/10/06 12:01:37;;;;;;;17.10;2.92;;;;;;;19.88;100.00;99256.19;5032212;28;20052;-56
2022/10/06 12:04:09;;;;;;;18.83;3.13;;;;;;;19.57;100.00;99252.66;5032463;28;20207;-56
2022/10/06 12:06:40;;;;;;;24.58;3.28;;;;;;;19.85;100.00;99254.56;5034812;28;20424;-57
2022/10/06 12:09:31;;;;;;;19.58;3.08;;;;;;;20.19;100.00;99239.28;5035383;28;20027;-56
2022/10/06 12:11:58;;;;;;;20.83;3.17;;;;;;;20.09;100.00;99240.78;5024466;28;20053;-55
2022/10/06 12:15:11;;;;;;;22.45;3.22;;;;;;;20.89;100.00;99242.03;5035600;28;20148;-56
2022/10/06 12:17:39;;;;;;;23.17;3.72;;;;;;;21.17;100.00;99240.25;5033764;28;20123;-56
2022/10/06 12:20:19;;;;;;;18.88;3.15;;;;;;;20.61;100.00;99237.63;5032791;28;20099;-57
2022/10/06 12:22:53;;;;;;;22.75;3.63;;;;;;;20.59;100.00;99240.34;5035138;28;20047;-55
2022/10/06 12:25:45;;;;;;;15.52;2.75;;;;;;;20.01;100.00;99233.31;5033802;28;20455;-59
2022/10/06 12:28:39;;;;;;;24.70;3.45;;;;;;;20.46;100.00;99228.81;5034352;28;20028;-56
2022/10/06 12:31:23;;;;;;;17.80;2.95;;;;;;;20.46;100.00;99230.56;5033459;28;20033;-58
2022/10/06 12:33:49;;;;;;;21.67;3.60;;;;;;;20.12;100.00;99225.56;5035872;28;20032;-55
2022/10/06 12:36:28;;;;;;;18.38;2.97;;;;;;;20.54;100.00;99220.38;5034211;28;20045;-58
2022/10/06 12:39:05;;;;;;;25.83;3.70;;;;;;;19.86;100.00;99213.06;5033437;28;20040;-56
2022/10/06 12:42:00;;;;;;;19.90;3.10;;;;;;;20.20;100.00;99222.47;5032870;28;20037;-56